Wanamakers, Pennsylvania
Current Conditions -  °F | °C
As of 12:54 PM on Saturday 25 Oct 2014 (Local Time) from KRDG Reporting Station
Clear Clear  
Wind Chill: 19°   Ceiling: Unl
Heat Index: 19°   Visibility: 10mi
Dew Point:   Wind: 14mph
Humidity: 43%   Direction: 240°WSW
Pressure: 29.8"   Gusts: NA
Location:  40.6329°N, 75.8768°W
Report Text: KRDG 251654Z AUTO 24012KT 10SM CLR 19/06 A2980 RMK AO2 SLP095 T01890061
Loading
Personal Weather Stations






























Interactive Weather Map
Tropical Storm Tracking
New forecast layout! Learn more

10-Day Weather Forecast

Advertisements
Track Severe Weather on mobile